Aviation Digital Data Service (ADDS)

Output produced by METARs form (2142 UTC 28 March 2017)
found at http://aviationweather.gov/adds/metars/
 
KLAS 282046Z 2821/2918 01012G20KT P6SM SKC 
     FM290200 01010KT P6SM SKC